Erie, PA

12:39 AM EST on March 03, 2015 (GMT -0500)
Downtown Erie PA | Change Station
CLOSE
Current Station
Personal Weather Station
Location: Erie, PA
Elevation: 700 ft
Nearby Weather Stations
Active Advisory: Winter Weather Advisory

Elev 700 ft 42.13 °N, 80.09 °W | Updated 11 seconds ago

Clear
Clear
16.8 °F
Feels Like 17 °F
N
0.0
Wind Variable Wind from WSW

Today
High -- | Low -- °F
--% Chance of Precip.
Yesterday
High -- | Low -- °F
Precip. -- in
6:52 AM 6:12 PM
Waxing Gibbous, 94% visible
Pressure 30.44 in
Visibility 8.0 miles
Clouds Clear
Windchill 17 °F
Dew Point 13 °F
Humidity 84%
Rainfall 0.00 in
Snow Depth Not available.
UV 0.0 out of 12
Pollen .30 out of 12
Air Quality Not available.
Flu Activity Not available.
METAR KERI 030451Z 18003KT 8SM CLR M11/M14 A3039 RMK AO2 SLP306 T11111139 410391117

More Conditions Fewer Conditions

Pressure 30.44 in
Visibility 8.0 miles
Clouds Clear
Windchill 17 °F
Dew Point 13 °F
Humidity 84%
Rainfall 0.00 in
Snow Depth Not available.
UV 0.0 out of 12
Pollen .30 out of 12
Air Quality Not available.
Flu Activity Not available.
METAR KERI 030451Z 18003KT 8SM CLR M11/M14 A3039 RMK AO2 SLP306 T11111139 410391117

More Conditions Fewer Conditions

10-Day Weather Forecast

Almanac

Astronomy

Mar. 03, 2015 Rise Set
Actual Time
Civil Twilight
Nautical Twilight
Astronomical Twilight
Moon
Length of Visible Light
Length of Day
Tomorrow will be .
, % of the Moon is Illuminated

Today's Extremes

State Highs State Lows

Community

WunderPhotos

Upload Photos

1,802,066 photos uploaded!

WunderBlogs® & News

Nearby

Air Quality

  Air Quality AQ Index Pollutant
Not available.

Snow Depth

Station Depth Elevation

Earthquake Activity

City Distance Mag. Time & Date
Minimum magnitude displayed is 2.5.

Coastal Water Temperatures

Place Temperature

Nearby Weather Stations

Winter Weather Advisory
Statement as of 9:46 PM EST on March 02, 2015

... Winter Weather Advisory remains in effect from 11 am to 4 PM
EST Tuesday...

* ice accumulations... a tenth of an inch or less.

* Snow accumulations... up to 1 inch.

* Snow/ice beginning... snow will begin by late morning then
gradually transition to sleet and freezing rain for much of
the afternoon.

* Period of most intense snow/ice... accumulations of ice and
snow will be light and may only cause impacts for a brief
period of time on elevated surfaces.

* Snow/ice ending... rain is expected after 4 PM.

* Impacts... hazardous travel conditions are expected due to
snow... sleet and ice covered roads. This will mainly occur on
untreated elevated surfaces.

Precautionary/preparedness actions...

A Winter Weather Advisory is normally issued for a variety of
winter weather conditions such as light snow... blowing snow...
sleet... freezing rain and wind chills. While the weather will be
significant... the word advisory implies that severe winter
weather is not anticipated. Stay tuned to NOAA Weather Radio for
further details or updates.